createdAt,value
2023-06-28T00:00:50.163Z,82.65
2023-06-28T00:03:17.117Z,82.59
2023-06-28T00:05:44.036Z,82.04
2023-06-28T00:08:11.001Z,82.14
2023-06-28T00:10:37.998Z,82.34
2023-06-28T00:13:04.875Z,82.01
2023-06-28T00:15:32.423Z,81.38
2023-06-28T00:17:59.418Z,81.31
2023-06-28T00:20:26.476Z,81.28
2023-06-28T00:22:53.414Z,81.40
2023-06-28T00:25:20.402Z,81.38
2023-06-28T00:28:06.247Z,81.77
2023-06-28T00:30:54.042Z,81.57
2023-06-28T00:33:39.577Z,81.65
2023-06-28T00:36:25.480Z,81.28
2023-06-28T00:39:10.956Z,81.07
2023-06-28T00:41:38.007Z,81.55
2023-06-28T00:44:05.080Z,81.48
2023-06-28T00:46:32.091Z,81.26
2023-06-28T00:49:00.156Z,81.04
2023-06-28T00:51:29.909Z,80.68
2023-06-28T00:53:58.310Z,81.23
2023-06-28T00:56:25.965Z,81.43
2023-06-28T00:58:53.685Z,81.47
2023-06-28T01:01:21.924Z,81.28
2023-06-28T01:04:07.641Z,80.94
2023-06-28T01:06:39.430Z,80.76
2023-06-28T01:09:08.012Z,80.29
2023-06-28T01:11:36.023Z,79.63
2023-06-28T01:14:22.431Z,79.62
2023-06-28T01:16:50.727Z,79.74
2023-06-28T01:19:18.667Z,79.29
2023-06-28T01:21:49.795Z,79.78
2023-06-28T01:24:16.947Z,79.31
2023-06-28T01:26:44.701Z,79.58
2023-06-28T01:29:12.171Z,79.37
2023-06-28T01:31:39.440Z,79.24
2023-06-28T01:34:06.594Z,79.04
2023-06-28T01:36:34.667Z,79.10
2023-06-28T01:39:02.087Z,79.28
2023-06-28T01:41:29.445Z,79.08
2023-06-28T01:43:56.515Z,79.25
2023-06-28T01:46:25.331Z,79.18
2023-06-28T01:48:52.485Z,78.59
2023-06-28T01:51:20.322Z,79.72
2023-06-28T01:53:49.330Z,79.15
2023-06-28T01:56:16.278Z,78.78
2023-06-28T01:58:43.316Z,78.51
2023-06-28T02:01:10.449Z,78.49
2023-06-28T02:03:37.521Z,78.11
2023-06-28T02:06:05.740Z,77.82
2023-06-28T02:08:32.736Z,77.83
2023-06-28T02:10:59.612Z,77.36
2023-06-28T02:13:26.614Z,77.62
2023-06-28T02:15:53.499Z,78.24
2023-06-28T02:18:20.437Z,77.87
2023-06-28T02:20:47.354Z,77.53
2023-06-28T02:23:14.247Z,77.49
2023-06-28T02:25:41.079Z,77.80
2023-06-28T02:28:10.041Z,77.52
2023-06-28T02:30:55.346Z,77.22
2023-06-28T02:33:24.821Z,77.12
2023-06-28T02:35:51.694Z,77.68
2023-06-28T02:38:18.581Z,77.03
2023-06-28T02:40:45.579Z,77.75
2023-06-28T02:43:12.557Z,77.37
2023-06-28T02:45:39.503Z,77.14
2023-06-28T02:48:24.975Z,76.53
2023-06-28T02:50:52.204Z,77.97
2023-06-28T02:53:37.613Z,77.54
2023-06-28T02:56:04.975Z,77.25
2023-06-28T02:58:58.038Z,76.86
2023-06-28T03:01:25.461Z,76.68
2023-06-28T03:04:11.657Z,77.15
2023-06-28T03:06:38.762Z,76.49
2023-06-28T03:09:05.665Z,76.35
2023-06-28T03:11:32.687Z,76.29
2023-06-28T03:13:59.635Z,76.41
2023-06-28T03:16:26.674Z,76.78
2023-06-28T03:18:53.896Z,76.59
2023-06-28T03:21:39.233Z,75.79
2023-06-28T03:24:25.772Z,76.03
2023-06-28T03:26:53.952Z,76.55
2023-06-28T03:29:21.628Z,76.12
2023-06-28T03:31:49.607Z,76.33
2023-06-28T03:34:16.801Z,75.88
2023-06-28T03:37:05.324Z,76.86
2023-06-28T03:39:33.559Z,76.06
2023-06-28T03:42:00.496Z,75.80
2023-06-28T03:44:45.806Z,76.38
2023-06-28T03:47:14.682Z,76.14
2023-06-28T03:49:41.835Z,76.65
2023-06-28T03:52:27.608Z,76.22
2023-06-28T03:54:54.657Z,76.21
2023-06-28T03:57:41.276Z,76.39
2023-06-28T04:00:08.886Z,75.89
2023-06-28T04:02:41.094Z,76.22
2023-06-28T04:05:26.869Z,75.46
2023-06-28T04:07:53.921Z,75.54
2023-06-28T04:10:20.940Z,75.55
2023-06-28T04:12:47.997Z,75.94
2023-06-28T04:15:14.980Z,75.18
2023-06-28T04:17:42.000Z,74.93
2023-06-28T04:20:09.169Z,74.64
2023-06-28T04:22:36.278Z,74.65
2023-06-28T04:25:03.446Z,74.21
2023-06-28T04:27:30.484Z,74.85
2023-06-28T04:29:57.595Z,74.59
2023-06-28T04:32:28.178Z,74.24
2023-06-28T04:34:56.209Z,74.75
2023-06-28T04:37:24.625Z,74.79
2023-06-28T04:39:51.531Z,74.60
2023-06-28T04:42:18.817Z,73.53
2023-06-28T04:44:46.074Z,73.43
2023-06-28T04:47:13.062Z,73.80
2023-06-28T04:49:40.154Z,73.18
2023-06-28T04:52:07.377Z,72.85
2023-06-28T04:54:34.284Z,72.24
2023-06-28T04:57:19.859Z,72.55
2023-06-28T05:00:06.046Z,72.65
2023-06-28T05:02:51.810Z,72.06
2023-06-28T05:05:18.904Z,71.96
2023-06-28T05:07:45.935Z,72.17
2023-06-28T05:10:31.341Z,72.54
2023-06-28T05:12:58.420Z,72.62
2023-06-28T05:15:43.855Z,71.69
2023-06-28T05:18:11.165Z,72.23
2023-06-28T05:20:56.574Z,72.28
2023-06-28T05:23:26.394Z,73.12
2023-06-28T05:25:53.444Z,71.96
2023-06-28T05:28:20.939Z,71.86
2023-06-28T05:30:48.447Z,71.12
2023-06-28T05:33:15.613Z,71.45
2023-06-28T05:36:01.284Z,70.32
2023-06-28T05:38:28.411Z,69.35
2023-06-28T05:41:14.255Z,68.46
2023-06-28T05:43:44.212Z,67.64
2023-06-28T05:46:11.332Z,67.28
2023-06-28T05:48:56.701Z,67.66
2023-06-28T05:51:23.720Z,66.42
2023-06-28T05:54:08.828Z,66.69
2023-06-28T05:56:35.810Z,66.57
2023-06-28T05:59:02.698Z,66.28
2023-06-28T06:01:30.033Z,66.36
2023-06-28T06:03:57.041Z,66.01
2023-06-28T06:06:24.123Z,65.62
2023-06-28T06:08:51.209Z,66.10
2023-06-28T06:11:36.453Z,66.20
2023-06-28T06:14:22.126Z,66.09
2023-06-28T06:16:49.208Z,65.42
2023-06-28T06:19:16.446Z,65.06
2023-06-28T06:22:02.225Z,64.55
2023-06-28T06:24:29.197Z,63.46
2023-06-28T06:26:56.157Z,63.18
2023-06-28T06:29:41.830Z,63.03
2023-06-28T06:32:30.169Z,62.36
2023-06-28T06:34:57.307Z,61.89
2023-06-28T06:37:24.428Z,61.88
2023-06-28T06:39:51.516Z,61.43
2023-06-28T06:42:37.503Z,60.56
2023-06-28T06:45:05.042Z,61.04
2023-06-28T06:47:50.713Z,60.05
2023-06-28T06:50:17.883Z,60.28
2023-06-28T06:52:45.297Z,61.52
2023-06-28T06:55:12.364Z,61.45
2023-06-28T06:57:39.262Z,62.57
2023-06-28T07:00:06.845Z,61.75
2023-06-28T07:02:33.892Z,60.96
2023-06-28T07:05:00.989Z,61.10
2023-06-28T07:07:46.441Z,61.29
2023-06-28T07:10:31.903Z,61.30
2023-06-28T07:13:05.039Z,62.10
2023-06-28T07:15:32.070Z,62.36
2023-06-28T07:17:59.560Z,61.92
2023-06-28T07:20:44.891Z,61.73
2023-06-28T07:23:11.937Z,61.20
2023-06-28T07:25:38.912Z,60.49
2023-06-28T07:28:06.061Z,59.87
2023-06-28T07:30:52.447Z,60.07
2023-06-28T07:33:19.439Z,58.86
2023-06-28T07:35:46.335Z,57.91
2023-06-28T07:38:13.433Z,57.54
2023-06-28T07:40:59.472Z,57.20
2023-06-28T07:43:26.535Z,56.47
2023-06-28T07:45:54.111Z,57.22
2023-06-28T07:48:21.489Z,57.24
2023-06-28T07:51:07.270Z,57.97
2023-06-28T07:53:34.523Z,58.21
2023-06-28T07:56:01.469Z,58.41
2023-06-28T07:58:28.505Z,59.45
2023-06-28T08:00:55.541Z,58.68
2023-06-28T08:03:22.641Z,58.98
2023-06-28T08:06:08.325Z,59.77
2023-06-28T08:08:35.357Z,59.47
2023-06-28T08:11:20.883Z,59.72
2023-06-28T08:13:47.942Z,59.63
2023-06-28T08:16:51.872Z,60.02
2023-06-28T08:19:21.232Z,59.76
2023-06-28T08:21:51.139Z,59.43
2023-06-28T08:24:22.845Z,59.78
2023-06-28T08:26:49.832Z,58.91
2023-06-28T08:29:35.635Z,58.13
2023-06-28T08:32:02.699Z,56.89
2023-06-28T08:34:29.674Z,57.13
2023-06-28T08:36:56.743Z,56.21
2023-06-28T08:39:23.680Z,55.15
2023-06-28T08:42:09.401Z,55.76
2023-06-28T08:44:38.599Z,54.90
2023-06-28T08:47:09.949Z,55.69
2023-06-28T08:49:40.208Z,56.47
2023-06-28T08:52:08.678Z,56.25
2023-06-28T08:54:37.087Z,55.52
2023-06-28T08:57:12.515Z,56.20
2023-06-28T09:00:00.053Z,55.33
2023-06-28T09:02:46.250Z,55.13
2023-06-28T09:05:31.985Z,55.23
2023-06-28T09:08:00.542Z,54.16
2023-06-28T09:10:27.868Z,54.37
2023-06-28T09:13:32.513Z,55.11
2023-06-28T09:16:01.341Z,55.28
2023-06-28T09:18:30.903Z,54.84
2023-06-28T09:20:58.276Z,55.21
2023-06-28T09:23:30.191Z,54.87
2023-06-28T09:26:16.076Z,54.87
2023-06-28T09:28:43.138Z,55.19
2023-06-28T09:31:10.099Z,55.60
2023-06-28T09:33:37.178Z,56.28
2023-06-28T09:36:04.516Z,55.56
2023-06-28T09:38:31.477Z,56.78
2023-06-28T09:41:03.358Z,58.08
2023-06-28T09:43:36.067Z,58.26
2023-06-28T09:46:16.279Z,58.33
2023-06-28T09:48:45.165Z,58.76
2023-06-28T09:51:30.731Z,59.03
2023-06-28T09:54:16.482Z,58.42
2023-06-28T09:56:45.400Z,59.57
2023-06-28T09:59:19.837Z,59.11
2023-06-28T10:01:54.332Z,59.14
2023-06-28T10:04:22.468Z,58.76
2023-06-28T10:06:50.686Z,58.90
2023-06-28T10:09:21.039Z,58.61
2023-06-28T10:11:52.662Z,57.96
2023-06-28T10:14:23.047Z,56.80
2023-06-28T10:17:09.326Z,57.15
2023-06-28T10:19:37.065Z,56.45
2023-06-28T10:22:06.017Z,54.74
2023-06-28T10:24:37.973Z,54.17
2023-06-28T10:27:23.980Z,53.08
2023-06-28T10:30:10.117Z,52.51
2023-06-28T10:32:56.307Z,51.76
2023-06-28T10:35:24.193Z,52.20
2023-06-28T10:38:09.901Z,52.41
2023-06-28T10:40:37.199Z,51.74
2023-06-28T10:43:04.594Z,51.47
2023-06-28T10:45:39.078Z,52.44
2023-06-28T10:48:27.444Z,52.32
2023-06-28T10:50:59.571Z,53.97
2023-06-28T10:53:28.218Z,53.80
2023-06-28T10:56:14.505Z,53.22
2023-06-28T10:58:46.089Z,52.52
2023-06-28T11:01:31.506Z,51.79
2023-06-28T11:04:25.084Z,52.02
2023-06-28T11:07:22.908Z,51.37
2023-06-28T11:10:12.877Z,51.27
2023-06-28T11:13:01.213Z,51.76
2023-06-28T11:15:29.102Z,52.59
2023-06-28T11:18:07.959Z,51.90
2023-06-28T11:20:49.523Z,51.12
2023-06-28T11:23:42.082Z,51.05
2023-06-28T11:26:32.316Z,50.44
2023-06-28T11:28:59.404Z,49.38
2023-06-28T11:31:38.788Z,50.10
2023-06-28T11:34:05.942Z,50.02
2023-06-28T11:36:33.073Z,49.47
2023-06-28T11:39:00.107Z,49.45
2023-06-28T11:41:27.322Z,48.87
2023-06-28T11:44:03.877Z,48.78
2023-06-28T11:46:34.081Z,47.97
2023-06-28T11:49:01.985Z,47.00
2023-06-28T11:51:29.525Z,46.77
2023-06-28T11:53:57.091Z,47.29
2023-06-28T11:56:44.298Z,46.31
2023-06-28T11:59:19.882Z,47.25
2023-06-28T12:01:48.208Z,46.70
2023-06-28T12:04:22.855Z,46.36
2023-06-28T12:06:50.912Z,46.46
2023-06-28T12:09:18.679Z,46.28
2023-06-28T12:12:05.326Z,47.47
2023-06-28T12:14:50.679Z,47.21
2023-06-28T12:17:17.720Z,46.76
2023-06-28T12:19:45.146Z,48.18
2023-06-28T12:22:38.828Z,47.70
2023-06-28T12:25:06.634Z,49.27
2023-06-28T12:27:33.608Z,48.66
2023-06-28T12:30:26.554Z,48.88
2023-06-28T12:32:57.809Z,48.73
2023-06-28T12:35:26.601Z,49.43
2023-06-28T12:37:58.038Z,48.97
2023-06-28T12:40:46.424Z,49.26
2023-06-28T12:43:20.582Z,48.62
2023-06-28T12:45:53.275Z,49.13
2023-06-28T12:48:21.163Z,48.34
2023-06-28T12:50:53.065Z,47.53
2023-06-28T12:53:20.217Z,46.93
2023-06-28T12:55:47.099Z,46.91
2023-06-28T12:58:38.657Z,47.27
2023-06-28T13:01:32.482Z,46.57
2023-06-28T13:03:59.616Z,47.01
2023-06-28T13:06:26.687Z,47.58
2023-06-28T13:08:53.750Z,47.48
2023-06-28T13:11:39.156Z,47.88
2023-06-28T13:14:06.144Z,47.22
2023-06-28T13:16:33.068Z,46.92
2023-06-28T13:19:00.122Z,46.85
2023-06-28T13:21:27.283Z,47.92
2023-06-28T13:23:54.406Z,47.83
2023-06-28T13:26:21.377Z,48.96
2023-06-28T13:28:48.375Z,49.20
2023-06-28T13:31:15.316Z,49.25
2023-06-28T13:33:42.367Z,48.81
2023-06-28T13:36:11.030Z,49.89
2023-06-28T13:38:39.164Z,50.00
2023-06-28T13:41:06.161Z,50.71
2023-06-28T13:43:33.201Z,50.21
2023-06-28T13:46:00.104Z,50.46
2023-06-28T13:48:27.095Z,50.57
2023-06-28T13:50:53.980Z,50.78
2023-06-28T13:53:21.212Z,49.72
2023-06-28T13:55:48.136Z,50.18
2023-06-28T13:58:15.192Z,49.68
2023-06-28T14:00:42.375Z,49.56
2023-06-28T14:03:27.963Z,49.57
2023-06-28T14:05:54.990Z,49.68
2023-06-28T14:08:40.457Z,49.41
2023-06-28T14:11:07.541Z,49.55
2023-06-28T14:13:34.622Z,49.76
2023-06-28T14:16:01.713Z,49.44
2023-06-28T14:18:47.009Z,49.24
2023-06-28T14:21:13.983Z,49.73
2023-06-28T14:23:41.100Z,50.08
2023-06-28T14:26:26.452Z,49.93
2023-06-28T14:28:54.301Z,49.85
2023-06-28T14:31:22.424Z,49.80
2023-06-28T14:33:49.535Z,50.46
2023-06-28T14:36:16.515Z,49.68
2023-06-28T14:38:43.517Z,49.83
2023-06-28T14:41:10.498Z,49.86
2023-06-28T14:43:37.526Z,49.66
2023-06-28T14:46:04.537Z,49.28
2023-06-28T14:48:31.578Z,49.17
2023-06-28T14:50:58.448Z,50.27
2023-06-28T14:53:25.640Z,50.24
2023-06-28T14:55:52.661Z,50.18
2023-06-28T14:58:19.784Z,50.78
2023-06-28T15:00:46.906Z,50.84
2023-06-28T15:03:14.026Z,50.95
2023-06-28T15:05:42.409Z,51.31
2023-06-28T15:08:09.610Z,52.03
2023-06-28T15:10:36.532Z,51.74
2023-06-28T15:13:03.514Z,51.42
2023-06-28T15:15:49.284Z,51.78
2023-06-28T15:18:34.728Z,51.66
2023-06-28T15:21:01.786Z,51.77
2023-06-28T15:23:28.732Z,52.01
2023-06-28T15:25:55.915Z,52.76
2023-06-28T15:28:23.048Z,52.59
2023-06-28T15:30:50.219Z,52.31
2023-06-28T15:33:17.192Z,52.21
2023-06-28T15:35:45.084Z,52.62
2023-06-28T15:38:12.266Z,52.90
2023-06-28T15:40:39.231Z,53.47
2023-06-28T15:43:06.257Z,52.65
2023-06-28T15:45:33.358Z,52.66
2023-06-28T15:48:00.422Z,52.63
2023-06-28T15:50:27.587Z,53.21
2023-06-28T15:52:54.498Z,53.59
2023-06-28T15:55:44.328Z,53.90
2023-06-28T15:58:11.375Z,53.30
2023-06-28T16:00:38.258Z,54.20
2023-06-28T16:03:05.353Z,54.21
2023-06-28T16:05:32.319Z,54.53
2023-06-28T16:07:59.283Z,56.08
2023-06-28T16:10:26.389Z,56.31
2023-06-28T16:12:53.506Z,57.30
2023-06-28T16:15:20.424Z,57.58
2023-06-28T16:17:47.546Z,57.82
2023-06-28T16:20:14.558Z,57.77
2023-06-28T16:23:00.122Z,57.78
2023-06-28T16:25:27.127Z,58.75
2023-06-28T16:28:13.018Z,58.73
2023-06-28T16:30:41.668Z,58.27
2023-06-28T16:33:09.221Z,58.41
2023-06-28T16:35:36.707Z,58.24
2023-06-28T16:38:03.715Z,58.79
2023-06-28T16:40:50.890Z,58.82
2023-06-28T16:43:18.268Z,59.20
2023-06-28T16:45:45.200Z,58.98
2023-06-28T16:48:12.451Z,59.40
2023-06-28T16:50:39.501Z,59.26
2023-06-28T16:53:06.588Z,59.16
2023-06-28T16:55:33.624Z,59.82
2023-06-28T16:58:00.787Z,59.70
2023-06-28T17:00:27.870Z,59.82
2023-06-28T17:03:13.578Z,59.54
2023-06-28T17:05:40.776Z,60.49
2023-06-28T17:08:07.704Z,60.32
2023-06-28T17:10:34.702Z,60.72
2023-06-28T17:13:01.735Z,61.19
2023-06-28T17:15:28.941Z,61.58
2023-06-28T17:17:56.058Z,60.90
2023-06-28T17:20:42.057Z,61.34
2023-06-28T17:23:27.931Z,61.85
2023-06-28T17:25:55.000Z,62.23
2023-06-28T17:28:40.516Z,62.60
2023-06-28T17:31:09.288Z,62.41
2023-06-28T17:33:36.194Z,62.93
2023-06-28T17:36:03.387Z,62.82
2023-06-28T17:38:30.812Z,63.22
2023-06-28T17:40:57.902Z,63.23
2023-06-28T17:43:24.901Z,63.43
2023-06-28T17:46:11.211Z,63.66
2023-06-28T17:48:38.273Z,63.75
2023-06-28T17:51:05.244Z,64.06
2023-06-28T17:53:50.675Z,63.36
2023-06-28T17:56:17.865Z,64.24
2023-06-28T17:58:44.914Z,64.09
2023-06-28T18:01:12.139Z,63.99
2023-06-28T18:03:39.746Z,64.23
2023-06-28T18:06:11.124Z,64.33
2023-06-28T18:08:38.699Z,64.69
2023-06-28T18:11:05.646Z,64.78
2023-06-28T18:13:33.598Z,64.80
2023-06-28T18:16:00.730Z,64.75
2023-06-28T18:18:27.760Z,64.85
2023-06-28T18:20:54.725Z,64.84
2023-06-28T18:23:40.377Z,64.73
2023-06-28T18:26:07.307Z,64.68
2023-06-28T18:28:36.538Z,64.32
2023-06-28T18:31:04.284Z,64.60
2023-06-28T18:33:32.609Z,64.19
2023-06-28T18:36:01.599Z,64.14
2023-06-28T18:38:28.528Z,64.78
2023-06-28T18:40:55.956Z,64.70
2023-06-28T18:43:22.889Z,65.42
2023-06-28T18:45:50.903Z,64.87
2023-06-28T18:48:18.301Z,65.42
2023-06-28T18:50:57.882Z,64.99
2023-06-28T18:53:25.947Z,65.10
2023-06-28T18:55:53.035Z,65.25
2023-06-28T18:58:38.369Z,65.30
2023-06-28T19:01:05.450Z,65.47
2023-06-28T19:03:32.557Z,65.20
2023-06-28T19:06:18.186Z,65.77
2023-06-28T19:08:45.302Z,66.18
2023-06-28T19:11:12.331Z,66.87
2023-06-28T19:13:39.402Z,66.22
2023-06-28T19:16:06.706Z,66.89
2023-06-28T19:18:36.020Z,66.82
2023-06-28T19:21:03.501Z,67.41
2023-06-28T19:23:30.447Z,67.33
2023-06-28T19:25:57.466Z,66.86
2023-06-28T19:28:24.763Z,67.51
2023-06-28T19:30:51.870Z,66.90
2023-06-28T19:33:18.832Z,67.31
2023-06-28T19:35:46.586Z,68.07
2023-06-28T19:38:13.659Z,68.32
2023-06-28T19:40:40.859Z,68.16
2023-06-28T19:43:45.357Z,68.24
2023-06-28T19:46:12.615Z,68.60
2023-06-28T19:48:59.633Z,68.69
2023-06-28T19:51:26.656Z,68.91
2023-06-28T19:53:53.733Z,69.00
2023-06-28T19:56:20.921Z,69.17
2023-06-28T19:59:06.376Z,69.31
2023-06-28T20:01:52.406Z,69.13
2023-06-28T20:04:38.436Z,69.26
2023-06-28T20:07:05.947Z,70.15
2023-06-28T20:09:33.030Z,69.56
2023-06-28T20:12:00.040Z,70.02
2023-06-28T20:14:27.145Z,70.09
2023-06-28T20:16:54.182Z,70.30
2023-06-28T20:19:21.622Z,71.10
2023-06-28T20:22:07.472Z,70.74
2023-06-28T20:24:52.787Z,71.44
2023-06-28T20:27:19.843Z,72.00
2023-06-28T20:29:46.789Z,71.13
2023-06-28T20:32:13.947Z,71.32
2023-06-28T20:34:41.261Z,71.14
2023-06-28T20:37:26.843Z,71.62
2023-06-28T20:39:54.027Z,71.36
2023-06-28T20:42:21.128Z,71.53
2023-06-28T20:44:48.533Z,71.53
2023-06-28T20:47:34.255Z,70.86
2023-06-28T20:50:01.245Z,71.54
2023-06-28T20:52:46.906Z,71.52
2023-06-28T20:55:14.020Z,71.77
2023-06-28T20:57:40.904Z,71.55
2023-06-28T21:00:26.574Z,71.77
2023-06-28T21:03:16.008Z,71.71
2023-06-28T21:05:43.761Z,71.88
2023-06-28T21:08:29.468Z,71.44
2023-06-28T21:10:56.840Z,71.39
2023-06-28T21:13:23.848Z,72.09
2023-06-28T21:15:50.826Z,72.00
2023-06-28T21:18:17.859Z,71.87
2023-06-28T21:20:44.858Z,72.07
2023-06-28T21:23:30.473Z,71.73
2023-06-28T21:25:57.896Z,71.75
2023-06-28T21:28:24.794Z,72.04
2023-06-28T21:30:51.824Z,71.42
2023-06-28T21:33:18.703Z,71.47
2023-06-28T21:35:45.982Z,71.61
2023-06-28T21:38:13.096Z,71.38
2023-06-28T21:40:40.114Z,71.57
2023-06-28T21:43:25.608Z,71.21
2023-06-28T21:45:52.642Z,70.99
2023-06-28T21:48:19.549Z,70.90
2023-06-28T21:50:49.696Z,70.81
2023-06-28T21:53:16.695Z,70.78
2023-06-28T21:55:43.874Z,71.20
2023-06-28T21:58:11.156Z,71.05
2023-06-28T22:00:38.261Z,70.52
2023-06-28T22:03:05.356Z,70.41
2023-06-28T22:05:50.938Z,70.34
2023-06-28T22:08:18.398Z,70.74
2023-06-28T22:10:45.341Z,70.85
2023-06-28T22:13:13.082Z,70.67
2023-06-28T22:15:40.534Z,70.15
2023-06-28T22:18:08.453Z,70.69
2023-06-28T22:20:35.473Z,70.09
2023-06-28T22:23:02.594Z,70.66
2023-06-28T22:25:29.556Z,70.66
2023-06-28T22:28:14.943Z,70.27
2023-06-28T22:31:00.737Z,70.67
2023-06-28T22:33:27.904Z,70.96
2023-06-28T22:35:54.962Z,70.61
2023-06-28T22:38:22.060Z,70.84
2023-06-28T22:41:07.926Z,70.96
2023-06-28T22:43:35.062Z,70.34
2023-06-28T22:46:02.119Z,70.78
2023-06-28T22:48:47.590Z,70.55
2023-06-28T22:51:14.637Z,70.45
2023-06-28T22:53:59.946Z,70.20
2023-06-28T22:56:45.751Z,71.10
2023-06-28T22:59:12.819Z,71.68
2023-06-28T23:01:39.764Z,72.18
2023-06-28T23:04:06.879Z,72.50
2023-06-28T23:06:33.955Z,72.82
2023-06-28T23:09:19.285Z,73.13
2023-06-28T23:11:46.489Z,72.96
2023-06-28T23:14:13.462Z,72.90
2023-06-28T23:16:40.540Z,73.09
2023-06-28T23:19:07.496Z,73.41
2023-06-28T23:21:35.286Z,72.53
2023-06-28T23:24:03.637Z,72.37
2023-06-28T23:26:31.592Z,72.48
2023-06-28T23:28:59.118Z,72.12
2023-06-28T23:32:03.445Z,72.75
2023-06-28T23:34:30.438Z,72.97
2023-06-28T23:36:57.450Z,73.02
2023-06-28T23:39:24.579Z,73.00
2023-06-28T23:41:51.454Z,72.41
2023-06-28T23:44:18.386Z,72.20
2023-06-28T23:46:45.479Z,72.18
2023-06-28T23:49:14.182Z,72.72
2023-06-28T23:51:41.937Z,72.41
2023-06-28T23:54:09.352Z,73.04
2023-06-28T23:56:36.580Z,73.14
2023-06-28T23:59:22.003Z,73.62
